createdAt,value
2022-09-25T00:01:14.048Z,5.67
2022-09-25T00:03:41.718Z,6.40
2022-09-25T00:06:15.995Z,7.47
2022-09-25T00:08:43.594Z,6.80
2022-09-25T00:11:28.555Z,5.30
2022-09-25T00:13:56.598Z,5.03
2022-09-25T00:16:30.441Z,5.60
2022-09-25T00:19:17.887Z,6.20
2022-09-25T00:21:45.450Z,6.10
2022-09-25T00:24:13.457Z,5.37
2022-09-25T00:26:42.940Z,6.50
2022-09-25T00:29:18.764Z,5.67
2022-09-25T00:31:46.049Z,6.77
2022-09-25T00:34:13.266Z,5.03
2022-09-25T00:36:40.332Z,5.23
2022-09-25T00:39:07.696Z,6.00
2022-09-25T00:41:35.166Z,6.00
2022-09-25T00:44:04.482Z,6.00
2022-09-25T00:46:44.315Z,4.87
2022-09-25T00:49:25.249Z,5.40
2022-09-25T00:52:13.085Z,4.47
2022-09-25T00:54:52.252Z,5.30
2022-09-25T00:57:26.945Z,4.97
2022-09-25T01:00:02.207Z,5.60
2022-09-25T01:02:39.670Z,4.90
2022-09-25T01:05:18.262Z,5.63
2022-09-25T01:07:49.092Z,5.40
2022-09-25T01:10:18.717Z,5.67
2022-09-25T01:12:49.146Z,5.43
2022-09-25T01:15:23.645Z,4.23
2022-09-25T01:18:42.332Z,4.77
2022-09-25T01:21:40.903Z,4.47
2022-09-25T01:25:34.150Z,4.70
2022-09-25T01:28:54.907Z,4.67
2022-09-25T01:32:03.042Z,4.67
2022-09-25T01:35:11.641Z,4.87
2022-09-25T01:38:06.040Z,4.03
2022-09-25T01:40:55.293Z,4.67
2022-09-25T01:43:39.651Z,4.70
2022-09-25T01:46:22.490Z,4.50
2022-09-25T01:48:58.039Z,5.10
2022-09-25T01:51:35.867Z,3.87
2022-09-25T01:54:12.562Z,5.10
2022-09-25T01:57:05.400Z,4.90
2022-09-25T02:00:12.132Z,5.27
2022-09-25T02:02:49.632Z,5.10
2022-09-25T02:05:33.293Z,5.03
2022-09-25T02:08:12.553Z,4.40
2022-09-25T02:10:51.515Z,5.63
2022-09-25T02:13:20.692Z,4.97
2022-09-25T02:15:57.266Z,5.13
2022-09-25T02:18:44.503Z,4.17
2022-09-25T02:21:51.804Z,4.77
2022-09-25T02:24:59.188Z,4.60
2022-09-25T02:27:29.338Z,3.70
2022-09-25T02:29:58.342Z,3.63
2022-09-25T02:32:32.969Z,4.10
2022-09-25T02:35:00.960Z,3.93
2022-09-25T02:37:28.567Z,4.47
2022-09-25T02:40:01.979Z,5.10
2022-09-25T02:43:14.065Z,5.40
2022-09-25T02:46:55.932Z,5.03
2022-09-25T02:49:34.179Z,5.43
2022-09-25T02:52:25.288Z,5.53
2022-09-25T02:55:31.810Z,5.83
2022-09-25T02:58:41.642Z,5.17
2022-09-25T03:01:15.281Z,6.00
2022-09-25T03:03:45.828Z,5.67
2022-09-25T03:06:13.408Z,4.93
2022-09-25T03:08:49.352Z,4.17
2022-09-25T03:11:21.208Z,4.43
2022-09-25T03:14:05.881Z,5.40
2022-09-25T03:16:53.100Z,5.40
2022-09-25T03:19:20.111Z,5.97
2022-09-25T03:21:48.275Z,4.33
2022-09-25T03:24:15.870Z,5.73
2022-09-25T03:26:43.594Z,5.80
2022-09-25T03:29:14.725Z,3.53
2022-09-25T03:31:42.571Z,4.57
2022-09-25T03:34:16.380Z,5.20
2022-09-25T03:36:47.339Z,5.00
2022-09-25T03:39:17.942Z,5.10
2022-09-25T03:41:45.494Z,4.73
2022-09-25T03:44:12.691Z,4.33
2022-09-25T03:46:40.883Z,5.63
2022-09-25T03:49:10.455Z,3.93
2022-09-25T03:51:38.790Z,4.43
2022-09-25T03:54:05.918Z,6.10
2022-09-25T03:56:33.212Z,5.73
2022-09-25T03:59:00.372Z,5.40
2022-09-25T04:01:28.879Z,5.03
2022-09-25T04:03:55.893Z,5.50
2022-09-25T04:06:26.322Z,4.67
2022-09-25T04:08:54.299Z,6.03
2022-09-25T04:11:24.747Z,5.43
2022-09-25T04:13:52.738Z,4.93
2022-09-25T04:16:21.069Z,5.67
2022-09-25T04:18:48.191Z,5.93
2022-09-25T04:21:16.222Z,6.10
2022-09-25T04:24:03.300Z,5.60
2022-09-25T04:26:31.560Z,3.13
2022-09-25T04:29:01.506Z,4.53
2022-09-25T04:31:30.984Z,5.57
2022-09-25T04:33:58.255Z,5.70
2022-09-25T04:36:25.222Z,4.10
2022-09-25T04:38:52.202Z,4.67
2022-09-25T04:41:20.015Z,4.50
2022-09-25T04:43:47.720Z,5.70
2022-09-25T04:46:21.399Z,5.17
2022-09-25T04:48:50.350Z,3.50
2022-09-25T04:51:17.345Z,5.33
2022-09-25T04:53:44.342Z,6.43
2022-09-25T04:56:16.334Z,4.03
2022-09-25T04:58:50.606Z,5.03
2022-09-25T05:01:20.653Z,3.90
2022-09-25T05:03:53.900Z,5.30
2022-09-25T05:06:22.962Z,5.67
2022-09-25T05:08:50.105Z,6.57
2022-09-25T05:11:17.107Z,5.57
2022-09-25T05:13:46.578Z,5.33
2022-09-25T05:16:13.756Z,6.63
2022-09-25T05:18:40.787Z,5.20
2022-09-25T05:21:07.773Z,4.80
2022-09-25T05:23:34.735Z,5.33
2022-09-25T05:26:02.606Z,5.10
2022-09-25T05:28:31.960Z,5.67
2022-09-25T05:31:04.181Z,5.80
2022-09-25T05:33:35.651Z,6.63
2022-09-25T05:36:07.533Z,5.73
2022-09-25T05:38:39.178Z,6.13
2022-09-25T05:41:09.363Z,6.80
2022-09-25T05:43:46.686Z,6.93
2022-09-25T05:46:15.165Z,6.50
2022-09-25T05:48:42.507Z,6.80
2022-09-25T05:51:10.227Z,6.00
2022-09-25T05:53:38.168Z,4.67
2022-09-25T05:56:06.510Z,5.03
2022-09-25T05:58:35.156Z,5.77
2022-09-25T06:01:05.649Z,7.50
2022-09-25T06:03:33.039Z,7.23
2022-09-25T06:06:00.672Z,7.90
2022-09-25T06:08:31.151Z,6.13
2022-09-25T06:11:00.707Z,6.60
2022-09-25T06:13:28.041Z,7.10
2022-09-25T06:15:55.103Z,6.83
2022-09-25T06:18:24.679Z,7.33
2022-09-25T06:20:58.410Z,7.10
2022-09-25T06:23:25.443Z,7.20
2022-09-25T06:25:52.371Z,7.00
2022-09-25T06:28:19.345Z,7.53
2022-09-25T06:30:47.693Z,7.00
2022-09-25T06:33:14.972Z,7.20
2022-09-25T06:35:48.333Z,7.07
2022-09-25T06:38:16.983Z,6.70
2022-09-25T06:40:45.330Z,5.60
2022-09-25T06:43:16.252Z,4.33
2022-09-25T06:45:43.930Z,6.17
2022-09-25T06:48:14.083Z,6.10
2022-09-25T06:50:51.130Z,6.03
2022-09-25T06:53:20.584Z,5.30
2022-09-25T06:55:47.898Z,5.73
2022-09-25T06:58:20.460Z,5.90
2022-09-25T07:00:53.462Z,6.50
2022-09-25T07:03:39.991Z,6.07
2022-09-25T07:06:10.953Z,6.57
2022-09-25T07:08:38.606Z,6.83
2022-09-25T07:11:06.342Z,6.93
2022-09-25T07:13:36.791Z,6.90
2022-09-25T07:16:08.097Z,6.83
2022-09-25T07:18:35.397Z,6.87
2022-09-25T07:21:14.899Z,7.07
2022-09-25T07:23:42.626Z,7.07
2022-09-25T07:26:14.498Z,6.90
2022-09-25T07:28:43.902Z,7.10
2022-09-25T07:31:24.472Z,8.20
2022-09-25T07:33:51.791Z,6.93
2022-09-25T07:36:19.900Z,7.97
2022-09-25T07:38:54.120Z,8.00
2022-09-25T07:41:22.957Z,7.50
2022-09-25T07:46:46.571Z,8.10
2022-09-25T07:49:14.364Z,8.10
2022-09-25T07:51:41.852Z,7.77
2022-09-25T07:54:08.939Z,7.67
2022-09-25T07:56:38.024Z,7.70
2022-09-25T07:59:08.027Z,7.77
2022-09-25T08:01:39.539Z,7.67
2022-09-25T08:04:09.864Z,7.43
2022-09-25T08:06:37.025Z,7.87
2022-09-25T08:09:09.491Z,7.63
2022-09-25T08:11:37.936Z,7.40
2022-09-25T08:14:04.979Z,7.47
2022-09-25T08:16:32.029Z,7.00
2022-09-25T08:18:58.949Z,7.53
2022-09-25T08:21:25.882Z,7.37
2022-09-25T08:23:54.651Z,7.07
2022-09-25T08:26:23.315Z,7.33
2022-09-25T08:28:51.925Z,7.97
2022-09-25T08:31:19.412Z,8.27
2022-09-25T08:33:49.261Z,6.97
2022-09-25T08:36:18.082Z,8.10
2022-09-25T08:38:45.647Z,7.80
2022-09-25T08:41:32.574Z,7.50
2022-09-25T08:44:27.101Z,7.20
2022-09-25T08:47:31.662Z,7.43
2022-09-25T08:50:19.067Z,7.90
2022-09-25T08:52:58.502Z,7.57
2022-09-25T08:55:57.535Z,8.43
2022-09-25T08:58:30.715Z,7.57
2022-09-25T09:01:06.759Z,7.70
2022-09-25T09:03:45.739Z,7.87
2022-09-25T09:06:17.406Z,7.30
2022-09-25T09:08:58.373Z,7.47
2022-09-25T09:11:44.056Z,7.90
2022-09-25T09:14:21.077Z,7.03
2022-09-25T09:17:18.198Z,7.80
2022-09-25T09:19:51.492Z,8.00
2022-09-25T09:22:42.062Z,7.40
2022-09-25T09:26:02.520Z,8.00
2022-09-25T09:30:06.197Z,8.40
2022-09-25T09:33:29.427Z,7.72
2022-09-25T09:36:33.063Z,7.93
2022-09-25T09:39:35.952Z,8.30
2022-09-25T09:42:36.461Z,7.50
2022-09-25T09:45:53.026Z,8.32
2022-09-25T09:49:11.904Z,7.53
2022-09-25T09:51:58.274Z,7.38
2022-09-25T09:55:00.983Z,7.13
2022-09-25T09:57:33.600Z,6.80
2022-09-25T10:00:13.246Z,7.27
2022-09-25T10:03:02.776Z,7.63
2022-09-25T10:05:49.836Z,8.00
2022-09-25T10:08:17.522Z,7.82
2022-09-25T10:10:53.722Z,7.72
2022-09-25T10:13:36.108Z,7.32
2022-09-25T10:16:24.278Z,7.93
2022-09-25T10:19:19.216Z,7.35
2022-09-25T10:22:05.319Z,7.55
2022-09-25T10:25:05.297Z,7.07
2022-09-25T10:27:45.922Z,7.72
2022-09-25T10:30:20.672Z,8.10
2022-09-25T10:33:18.457Z,7.75
2022-09-25T10:35:46.603Z,7.95
2022-09-25T10:38:43.872Z,7.63
2022-09-25T10:41:20.627Z,8.10
2022-09-25T10:44:02.352Z,7.82
2022-09-25T10:46:56.064Z,7.50
2022-09-25T10:49:46.925Z,7.32
2022-09-25T10:52:22.131Z,7.63
2022-09-25T10:54:50.935Z,7.55
2022-09-25T10:57:38.454Z,7.22
2022-09-25T11:00:24.527Z,11.13
2022-09-25T11:03:01.212Z,6.72
2022-09-25T11:05:36.914Z,6.90
2022-09-25T11:08:07.506Z,7.43
2022-09-25T11:10:47.549Z,6.80
2022-09-25T11:13:51.102Z,7.13
2022-09-25T11:16:19.718Z,6.55
2022-09-25T11:19:12.795Z,6.18
2022-09-25T11:22:14.036Z,6.50
2022-09-25T11:25:20.552Z,6.22
2022-09-25T11:28:14.852Z,5.72
2022-09-25T11:30:54.563Z,6.38
2022-09-25T11:33:50.790Z,6.75
2022-09-25T11:36:41.284Z,7.22
2022-09-25T11:40:10.514Z,7.00
2022-09-25T11:43:07.891Z,6.00
2022-09-25T11:45:55.676Z,6.22
2022-09-25T11:49:05.402Z,6.43
2022-09-25T11:52:17.478Z,6.85
2022-09-25T11:55:57.571Z,6.75
2022-09-25T11:58:40.167Z,7.30
2022-09-25T12:01:38.748Z,7.03
2022-09-25T12:04:59.115Z,7.20
2022-09-25T12:08:13.984Z,7.20
2022-09-25T12:11:08.458Z,7.18
2022-09-25T12:13:56.202Z,7.82
2022-09-25T12:16:58.114Z,7.80
2022-09-25T12:19:49.679Z,7.68
2022-09-25T12:22:48.760Z,7.72
2022-09-25T12:25:54.731Z,5.82
2022-09-25T12:29:29.029Z,6.68
2022-09-25T12:32:14.228Z,6.75
2022-09-25T12:35:16.236Z,7.75
2022-09-25T12:37:54.604Z,7.30
2022-09-25T12:41:29.984Z,7.00
2022-09-25T12:44:36.232Z,6.38
2022-09-25T12:47:43.072Z,6.75
2022-09-25T12:50:20.930Z,6.35
2022-09-25T12:53:02.959Z,5.80
2022-09-25T12:55:42.140Z,4.63
2022-09-25T12:58:50.626Z,4.68
2022-09-25T13:01:42.103Z,4.90
2022-09-25T13:04:51.012Z,4.72
2022-09-25T13:08:07.271Z,4.50
2022-09-25T13:11:38.373Z,4.80
2022-09-25T13:14:35.443Z,4.80
2022-09-25T13:17:03.071Z,4.78
2022-09-25T13:19:35.404Z,4.53
2022-09-25T13:22:14.183Z,4.78
2022-09-25T13:24:50.025Z,4.60
2022-09-25T13:27:24.976Z,5.07
2022-09-25T13:30:00.950Z,5.05
2022-09-25T13:32:34.716Z,4.25
2022-09-25T13:35:07.821Z,3.30
2022-09-25T13:37:40.496Z,3.60
2022-09-25T13:40:45.053Z,3.97
2022-09-25T13:43:29.590Z,3.58
2022-09-25T13:46:21.629Z,3.60
2022-09-25T13:48:52.329Z,3.50
2022-09-25T13:51:21.806Z,3.78
2022-09-25T13:54:23.760Z,3.80
2022-09-25T13:56:54.195Z,4.00
2022-09-25T13:59:24.570Z,3.53
2022-09-25T14:02:22.704Z,3.70
2022-09-25T14:04:50.182Z,3.35
2022-09-25T14:07:26.435Z,3.97
2022-09-25T14:09:59.014Z,3.63
2022-09-25T14:12:48.409Z,3.92
2022-09-25T14:15:30.320Z,3.38
2022-09-25T14:18:03.123Z,4.10
2022-09-25T14:20:42.995Z,3.80
2022-09-25T14:23:20.687Z,4.05
2022-09-25T14:26:01.401Z,3.85
2022-09-25T14:28:57.558Z,4.07
2022-09-25T14:31:31.504Z,4.15
2022-09-25T14:34:32.203Z,3.78
2022-09-25T14:38:11.511Z,4.45
2022-09-25T14:41:06.646Z,4.07
2022-09-25T14:44:00.082Z,4.32
2022-09-25T14:46:29.353Z,4.28
2022-09-25T14:49:14.217Z,4.43
2022-09-25T14:51:47.159Z,4.45
2022-09-25T14:54:20.555Z,4.93
2022-09-25T14:56:55.530Z,4.90
2022-09-25T14:59:45.811Z,4.60
2022-09-25T15:02:18.676Z,5.00
2022-09-25T15:04:45.984Z,5.00
2022-09-25T15:07:23.631Z,4.78
2022-09-25T15:09:55.503Z,4.97
2022-09-25T15:12:33.747Z,4.55
2022-09-25T15:15:14.920Z,4.50
2022-09-25T15:17:57.797Z,4.75
2022-09-25T15:20:34.681Z,4.60
2022-09-25T15:23:10.327Z,5.32
2022-09-25T15:25:47.407Z,5.32
2022-09-25T15:28:26.017Z,4.90
2022-09-25T15:31:03.803Z,4.78
2022-09-25T15:33:37.021Z,4.63
2022-09-25T15:36:15.999Z,4.45
2022-09-25T15:38:44.311Z,4.72
2022-09-25T15:41:15.813Z,4.03
2022-09-25T15:43:43.212Z,4.43
2022-09-25T15:46:10.290Z,4.65
2022-09-25T15:48:54.751Z,4.30
2022-09-25T15:51:25.697Z,4.55
2022-09-25T15:54:01.416Z,4.45
2022-09-25T15:56:57.030Z,4.60
2022-09-25T16:00:07.399Z,4.72
2022-09-25T16:02:58.893Z,4.93
2022-09-25T16:05:38.119Z,5.32
2022-09-25T16:08:36.683Z,5.45
2022-09-25T16:11:26.848Z,6.03
2022-09-25T16:14:22.747Z,5.07
2022-09-25T16:16:51.367Z,5.07
2022-09-25T16:19:27.711Z,5.55
2022-09-25T16:21:55.594Z,5.53
2022-09-25T16:24:29.138Z,5.63
2022-09-25T16:27:02.869Z,5.72
2022-09-25T16:29:39.049Z,5.47
2022-09-25T16:32:16.503Z,5.43
2022-09-25T16:35:02.951Z,5.40
2022-09-25T16:37:35.723Z,6.20
2022-09-25T16:40:33.746Z,5.30
2022-09-25T16:43:01.974Z,5.82
2022-09-25T16:45:34.156Z,5.40
2022-09-25T16:48:28.432Z,5.35
2022-09-25T16:50:55.820Z,5.82
2022-09-25T16:53:27.102Z,5.83
2022-09-25T16:55:54.227Z,5.90
2022-09-25T16:58:22.875Z,6.33
2022-09-25T17:00:50.960Z,6.50
2022-09-25T17:03:17.922Z,6.25
2022-09-25T17:05:44.849Z,6.35
2022-09-25T17:08:17.512Z,6.90
2022-09-25T17:10:46.255Z,5.50
2022-09-25T17:13:18.027Z,6.60
2022-09-25T17:15:45.339Z,6.63
2022-09-25T17:18:21.119Z,5.78
2022-09-25T17:20:55.385Z,5.93
2022-09-25T17:23:25.921Z,6.13
2022-09-25T17:26:21.322Z,6.67
2022-09-25T17:28:49.689Z,6.97
2022-09-25T17:31:21.061Z,6.83
2022-09-25T17:33:52.041Z,7.23
2022-09-25T17:36:19.069Z,7.40
2022-09-25T17:38:46.253Z,6.77
2022-09-25T17:41:32.711Z,7.30
2022-09-25T17:44:00.178Z,6.70
2022-09-25T17:46:27.271Z,6.57
2022-09-25T17:48:54.909Z,6.90
2022-09-25T17:51:27.795Z,6.30
2022-09-25T17:53:56.281Z,6.23
2022-09-25T17:56:25.721Z,6.53
2022-09-25T17:58:54.945Z,6.13
2022-09-25T18:01:26.989Z,5.85
2022-09-25T18:04:07.464Z,6.35
2022-09-25T18:06:34.377Z,6.10
2022-09-25T18:09:01.338Z,6.50
2022-09-25T18:11:28.316Z,5.50
2022-09-25T18:14:00.911Z,5.47
2022-09-25T18:16:32.695Z,4.97
2022-09-25T18:19:18.409Z,5.30
2022-09-25T18:22:04.137Z,5.03
2022-09-25T18:24:31.084Z,5.60
2022-09-25T18:26:58.394Z,5.00
2022-09-25T18:29:25.823Z,5.40
2022-09-25T18:31:52.897Z,5.37
2022-09-25T18:34:21.727Z,4.83
2022-09-25T18:36:51.728Z,4.70
2022-09-25T18:39:20.326Z,5.40
2022-09-25T18:41:48.195Z,4.87
2022-09-25T18:44:17.582Z,5.00
2022-09-25T18:46:45.050Z,5.03
2022-09-25T18:49:12.385Z,5.53
2022-09-25T18:51:39.990Z,5.73
2022-09-25T18:54:07.029Z,5.60
2022-09-25T18:56:34.595Z,5.90
2022-09-25T18:59:05.569Z,5.33
2022-09-25T19:01:36.262Z,6.10
2022-09-25T19:04:04.117Z,5.80
2022-09-25T19:06:31.203Z,6.13
2022-09-25T19:08:59.288Z,6.30
2022-09-25T19:11:28.270Z,6.03
2022-09-25T19:13:56.421Z,6.03
2022-09-25T19:16:24.119Z,6.60
2022-09-25T19:18:51.204Z,5.90
2022-09-25T19:21:22.948Z,6.10
2022-09-25T19:23:50.722Z,6.40
2022-09-25T19:26:25.649Z,5.83
2022-09-25T19:28:54.003Z,6.07
2022-09-25T19:31:27.445Z,6.23
2022-09-25T19:33:55.350Z,6.13
2022-09-25T19:36:26.680Z,6.00
2022-09-25T19:38:54.329Z,6.10
2022-09-25T19:41:35.669Z,5.07
2022-09-25T19:44:12.370Z,4.60
2022-09-25T19:46:42.961Z,6.50
2022-09-25T19:49:12.427Z,5.70
2022-09-25T19:51:40.396Z,5.83
2022-09-25T19:54:10.394Z,5.67
2022-09-25T19:56:40.841Z,6.10
2022-09-25T19:59:14.931Z,5.20
2022-09-25T20:01:43.605Z,5.17
2022-09-25T20:04:17.457Z,5.47
2022-09-25T20:06:45.930Z,5.73
2022-09-25T20:09:13.011Z,5.17
2022-09-25T20:11:40.101Z,5.80
2022-09-25T20:14:07.745Z,5.77
2022-09-25T20:16:37.244Z,5.30
2022-09-25T20:19:06.756Z,5.10
2022-09-25T20:21:38.401Z,5.23
2022-09-25T20:24:08.339Z,5.80
2022-09-25T20:26:36.364Z,4.93
2022-09-25T20:29:13.883Z,4.83
2022-09-25T20:31:45.278Z,4.80
2022-09-25T20:34:16.113Z,4.53
2022-09-25T20:36:43.711Z,5.10
2022-09-25T20:39:10.847Z,4.90
2022-09-25T20:41:38.227Z,5.37
2022-09-25T20:44:06.158Z,5.47
2022-09-25T20:46:33.907Z,5.10
2022-09-25T20:49:02.176Z,5.13
2022-09-25T20:51:35.253Z,5.10
2022-09-25T20:54:09.669Z,4.77
2022-09-25T20:56:43.519Z,4.70
2022-09-25T20:59:11.943Z,4.70
2022-09-25T21:01:41.429Z,5.27
2022-09-25T21:04:09.943Z,5.53
2022-09-25T21:06:40.238Z,5.47
2022-09-25T21:09:21.569Z,5.27
2022-09-25T21:11:49.356Z,5.97
2022-09-25T21:14:27.892Z,5.77
2022-09-25T21:16:59.011Z,4.47
2022-09-25T21:19:27.947Z,4.73
2022-09-25T21:21:55.014Z,5.43
2022-09-25T21:24:22.656Z,6.37
2022-09-25T21:26:50.250Z,5.40
2022-09-25T21:29:18.592Z,5.90
2022-09-25T21:31:49.774Z,5.80
2022-09-25T21:34:18.394Z,6.23
2022-09-25T21:36:46.754Z,5.97
2022-09-25T21:39:14.056Z,6.03
2022-09-25T21:41:42.211Z,5.10
2022-09-25T21:44:15.607Z,6.40
2022-09-25T21:46:44.016Z,6.30
2022-09-25T21:49:19.915Z,6.63
2022-09-25T21:51:48.450Z,5.97
2022-09-25T21:54:16.769Z,6.00
2022-09-25T21:56:44.422Z,6.77
2022-09-25T21:59:12.357Z,6.93
2022-09-25T22:01:40.375Z,5.23
2022-09-25T22:04:12.015Z,6.90
2022-09-25T22:06:48.000Z,6.47
2022-09-25T22:09:23.124Z,6.10
2022-09-25T22:11:51.056Z,6.77
2022-09-25T22:14:20.541Z,6.33
2022-09-25T22:16:51.984Z,5.23
2022-09-25T22:19:27.859Z,6.00
2022-09-25T22:21:59.274Z,6.03
2022-09-25T22:24:26.726Z,5.60
2022-09-25T22:26:55.888Z,6.93
2022-09-25T22:29:23.741Z,5.87
2022-09-25T22:31:50.795Z,6.23
2022-09-25T22:34:26.782Z,4.67
2022-09-25T22:36:59.439Z,6.50
2022-09-25T22:39:28.463Z,5.17
2022-09-25T22:41:56.267Z,5.20
2022-09-25T22:44:24.071Z,4.80
2022-09-25T22:46:51.120Z,4.93
2022-09-25T22:49:18.566Z,5.47
2022-09-25T22:51:45.994Z,5.13
2022-09-25T22:54:14.489Z,4.40
2022-09-25T22:56:42.405Z,4.23
2022-09-25T22:59:17.892Z,4.13
2022-09-25T23:01:53.781Z,4.10
2022-09-25T23:04:24.355Z,4.00
2022-09-25T23:06:52.590Z,4.43
2022-09-25T23:09:25.811Z,3.57
2022-09-25T23:11:56.081Z,4.07
2022-09-25T23:14:30.630Z,4.50
2022-09-25T23:16:58.787Z,4.37
2022-09-25T23:19:26.409Z,4.87
2022-09-25T23:21:56.534Z,4.60
2022-09-25T23:24:24.349Z,4.37
2022-09-25T23:26:51.867Z,4.07
2022-09-25T23:29:21.782Z,3.90
2022-09-25T23:31:50.598Z,3.60
2022-09-25T23:34:18.866Z,3.63
2022-09-25T23:36:45.937Z,3.47
2022-09-25T23:39:20.056Z,3.93
2022-09-25T23:41:47.889Z,3.60
2022-09-25T23:44:14.969Z,3.60
2022-09-25T23:46:44.198Z,3.53
2022-09-25T23:49:11.753Z,3.70
2022-09-25T23:51:39.295Z,3.60
2022-09-25T23:54:06.665Z,3.50
2022-09-25T23:56:35.122Z,2.50
2022-09-25T23:59:04.116Z,3.60
